Terminal Aerodrome Forecast
Issued by NWS Goodland, KS

Home | Current Version | Previous Version | Text Only | Print | Product List | Glossary On
Versions: 1 2 3 4 5 6 7 8 9 10 11 12 13 14 15 16 17
000
FTUS43 KGLD 240500 RRA
TAFGLD
TAF
KGLD 240546Z 2406/2506 14008KT P6SM FEW250
     FM241500 20013G25KT P6SM SCT200
     FM241700 18016G28KT P6SM SCT200
     FM250100 16010KT P6SM SCT070 BKN150=

USA.gov is the U.S. government's official web portal to all federal, state and local government web resources and services.